Terminal Aerodrome Forecast
Issued by NWS

Home | Current Version | Previous Version | Text Only | Print | Product List | Glossary On
Versions: 1 2 3 4 5 6 7 8 9 10 11 12 13 14 15 16 17 18 19 20 21 22 23 24 25 26 27 28 29 30 31 32 33 34 35 36 37 38 39 40 41
000
FTUS43 KPAH 171700
TAFOWB
TAF
KOWB 171721Z 1718/1818 31008KT P6SM BKN018
      TEMPO 1719/1723 SCT018 BKN250
     FM172300 33004KT P6SM SCT020 BKN250
     FM180200 VRB02KT P6SM SCT100 OVC250
     FM180500 00000KT P6SM SCT050 OVC100
     FM180900 VRB02KT P6SM SCT025 OVC050 PROB30 1810/1814 4SM
      -FZRASNPL
     FM181400 VRB03KT 5SM BR SCT010 OVC025=

USA.gov is the U.S. government's official web portal to all federal, state and local government web resources and services.